Time;durP1;ratioP1;P1;durP2;ratioP2;P2;SDS_P1;SDS_P2;PMS_P1;PMS_P2;Temp;Humidity;BMP_temperature;BMP_pressure;BME280_temperature;BME280_humidity;BME280_pressure;Samples;Min_cycle;Max_cycle;Signal;HPM_P1;HPM_P2
2022/12/05 00:01:21;;;;;;;24.40;10.52;;;;;;;;;;5094383;28;20042;-66
2022/12/05 00:03:48;;;;;;;31.48;8.98;;;;;;;;;;5094251;28;20040;-65
2022/12/05 00:06:15;;;;;;;55.50;10.63;;;;;;;;;;5076713;28;20027;-65
2022/12/05 00:08:42;;;;;;;40.80;10.23;;;;;;;;;;5076739;28;20031;-66
2022/12/05 00:11:15;;;;;;;53.22;9.43;;;;;;;;;;5094467;28;20028;-66
2022/12/05 00:13:42;;;;;;;61.38;9.57;;;;;;;;;;5094465;28;20024;-66
2022/12/05 00:16:09;;;;;;;42.05;8.13;;;;;;;;;;5094289;28;20080;-66
2022/12/05 00:18:35;;;;;;;18.73;7.97;;;;;;;;;;5093758;28;20020;-66
2022/12/05 00:21:02;;;;;;;60.78;9.02;;;;;;;;;;5093877;28;20378;-66
2022/12/05 00:23:28;;;;;;;17.00;8.02;;;;;;;;;;5094176;28;20534;-65
2022/12/05 00:25:54;;;;;;;38.55;7.75;;;;;;;;;;5094145;28;20020;-66
2022/12/05 00:28:21;;;;;;;24.20;8.18;;;;;;;;;;5094362;28;20020;-66
2022/12/05 00:30:47;;;;;;;20.50;7.45;;;;;;;;;;5093691;28;20034;-65
2022/12/05 00:33:14;;;;;;;17.67;7.28;;;;;;;;;;5094083;28;20038;-65
2022/12/05 00:35:40;;;;;;;11.43;6.28;;;;;;;;;;5093972;28;20503;-66
2022/12/05 00:38:07;;;;;;;31.85;6.85;;;;;;;;;;5094114;28;20032;-66
2022/12/05 00:40:35;;;;;;;15.38;6.18;;;;;;;;;;5093369;28;20070;-66
2022/12/05 00:43:01;;;;;;;16.15;7.30;;;;;;;;;;5093760;28;20068;-66
2022/12/05 00:45:27;;;;;;;15.60;6.80;;;;;;;;;;5093484;28;20487;-66
2022/12/05 00:47:54;;;;;;;15.85;6.30;;;;;;;;;;5093702;28;20065;-64
2022/12/05 00:50:20;;;;;;;12.05;6.25;;;;;;;;;;5093696;28;20526;-65
2022/12/05 00:52:46;;;;;;;27.67;6.60;;;;;;;;;;5093568;28;20024;-66
2022/12/05 00:55:12;;;;;;;23.98;6.82;;;;;;;;;;5093425;28;20043;-65
2022/12/05 00:57:39;;;;;;;18.25;6.30;;;;;;;;;;5093600;28;20031;-66
2022/12/05 01:00:06;;;;;;;24.48;6.28;;;;;;;;;;5092854;28;20040;-66
2022/12/05 01:02:32;;;;;;;20.77;6.72;;;;;;;;;;5093367;28;20051;-65
2022/12/05 01:04:58;;;;;;;36.83;7.00;;;;;;;;;;5092940;28;20038;-66
2022/12/05 01:07:24;;;;;;;16.60;6.47;;;;;;;;;;5093267;28;20024;-66
2022/12/05 01:09:51;;;;;;;43.08;6.95;;;;;;;;;;5093063;28;20092;-66
2022/12/05 01:12:17;;;;;;;52.22;7.05;;;;;;;;;;5075284;28;20030;-66
2022/12/05 01:14:43;;;;;;;48.75;7.43;;;;;;;;;;5092762;28;20515;-65
2022/12/05 01:17:10;;;;;;;70.72;7.68;;;;;;;;;;5093048;28;20026;-66
2022/12/05 01:19:36;;;;;;;78.50;7.43;;;;;;;;;;5092956;28;20515;-66
2022/12/05 01:22:02;;;;;;;64.38;7.53;;;;;;;;;;5092792;28;20496;-66
2022/12/05 01:24:29;;;;;;;16.25;7.45;;;;;;;;;;5093133;28;20028;-66
2022/12/05 01:26:56;;;;;;;25.80;8.57;;;;;;;;;;5093005;28;20485;-65
2022/12/05 01:29:23;;;;;;;26.60;7.20;;;;;;;;;;5092440;28;20020;-66
2022/12/05 01:31:50;;;;;;;31.58;8.82;;;;;;;;;;5092776;28;20028;-66
2022/12/05 01:34:17;;;;;;;56.65;8.07;;;;;;;;;;5093012;28;20526;-65
2022/12/05 01:36:44;;;;;;;45.28;7.45;;;;;;;;;;5092848;28;20485;-65
2022/12/05 01:39:11;;;;;;;33.47;7.80;;;;;;;;;;5092764;28;20040;-65
2022/12/05 01:41:39;;;;;;;20.83;8.10;;;;;;;;;;5092416;28;20522;-65
2022/12/05 01:44:07;;;;;;;13.70;7.78;;;;;;;;;;5092266;28;20028;-66
2022/12/05 01:46:35;;;;;;;18.45;7.75;;;;;;;;;;5092608;28;20020;-66
2022/12/05 01:49:10;;;;;;;31.70;8.25;;;;;;;;;;5092908;28;20028;-65
2022/12/05 01:51:38;;;;;;;54.83;12.52;;;;;;;;;;5092651;28;20031;-66
2022/12/05 01:54:05;;;;;;;28.60;9.45;;;;;;;;;;5092356;28;20043;-66
2022/12/05 01:56:32;;;;;;;20.42;8.25;;;;;;;;;;5092700;28;20028;-65
2022/12/05 01:59:00;;;;;;;19.05;7.50;;;;;;;;;;5092356;28;20023;-66
2022/12/05 02:01:26;;;;;;;14.30;6.88;;;;;;;;;;5092070;28;20054;-65
2022/12/05 02:03:55;;;;;;;16.85;8.07;;;;;;;;;;5092275;28;20020;-65
2022/12/05 02:06:23;;;;;;;10.82;5.70;;;;;;;;;;5092550;28;20042;-65
2022/12/05 02:08:49;;;;;;;7.35;4.25;;;;;;;;;;5092560;28;20024;-66
2022/12/05 02:11:15;;;;;;;6.10;3.70;;;;;;;;;;5092458;28;20054;-65
2022/12/05 02:13:48;;;;;;;7.22;4.38;;;;;;;;;;5091895;28;20513;-65
2022/12/05 02:16:33;;;;;;;6.05;3.97;;;;;;;;;;5092318;28;20036;-65
2022/12/05 02:19:18;;;;;;;5.38;3.80;;;;;;;;;;5092408;28;20092;-66
2022/12/05 02:21:47;;;;;;;19.58;5.82;;;;;;;;;;5091865;28;20038;-66
2022/12/05 02:24:14;;;;;;;12.40;6.10;;;;;;;;;;5092149;28;20020;-65
2022/12/05 02:26:49;;;;;;;6.95;4.90;;;;;;;;;;5092695;28;20020;-66
2022/12/05 02:29:22;;;;;;;8.10;5.20;;;;;;;;;;5092083;28;20020;-66
2022/12/05 02:31:56;;;;;;;7.53;5.15;;;;;;;;;;5092049;28;20040;-66
2022/12/05 02:34:28;;;;;;;9.15;5.93;;;;;;;;;;5092075;28;20021;-66
2022/12/05 02:37:17;;;;;;;12.10;6.97;;;;;;;;;;5092104;28;20043;-65
2022/12/05 02:39:56;;;;;;;7.75;5.55;;;;;;;;;;5091897;28;20055;-66
2022/12/05 02:42:29;;;;;;;9.32;5.45;;;;;;;;;;5091285;28;20035;-66
2022/12/05 02:45:06;;;;;;;9.07;5.65;;;;;;;;;;5092258;28;20020;-65
2022/12/05 02:47:35;;;;;;;7.00;4.90;;;;;;;;;;5091900;28;20041;-66
2022/12/05 02:50:01;;;;;;;7.88;4.68;;;;;;;;;;5092105;28;20032;-66
2022/12/05 02:52:29;;;;;;;7.97;4.20;;;;;;;;;;5091905;28;20031;-66
2022/12/05 02:54:56;;;;;;;5.25;4.40;;;;;;;;;;5092082;28;20028;-66
2022/12/05 02:57:25;;;;;;;5.60;3.92;;;;;;;;;;5091780;28;20032;-66
2022/12/05 02:59:51;;;;;;;5.18;4.03;;;;;;;;;;5091748;28;20032;-66
2022/12/05 03:02:26;;;;;;;6.15;4.20;;;;;;;;;;5091780;28;20028;-66
2022/12/05 03:04:52;;;;;;;4.75;3.42;;;;;;;;;;5091933;28;20016;-66
2022/12/05 03:07:19;;;;;;;5.28;3.42;;;;;;;;;;5091935;28;20032;-66
2022/12/05 03:09:46;;;;;;;3.75;2.80;;;;;;;;;;5091709;28;20026;-66
2022/12/05 03:12:17;;;;;;;4.07;3.13;;;;;;;;;;5091665;28;20016;-66
2022/12/05 03:14:43;;;;;;;;;;;;;;;;;;5092092;28;20023;-65
2022/12/05 03:17:12;;;;;;;4.75;2.50;;;;;;;;;;5091630;28;19910;-66
2022/12/05 03:19:47;;;;;;;3.42;2.53;;;;;;;;;;5091527;28;20499;-66
2022/12/05 03:22:18;;;;;;;4.75;2.90;;;;;;;;;;5091431;28;20031;-66
2022/12/05 03:24:44;;;;;;;4.72;2.92;;;;;;;;;;5091635;28;20475;-65
2022/12/05 03:27:16;;;;;;;3.33;2.60;;;;;;;;;;5091474;28;20028;-66
2022/12/05 03:29:42;;;;;;;3.97;2.83;;;;;;;;;;5077152;28;20031;-66
2022/12/05 03:32:14;;;;;;;6.18;3.30;;;;;;;;;;5095131;28;20016;-65
2022/12/05 03:34:47;;;;;;;4.05;3.10;;;;;;;;;;5095044;28;20038;-65
2022/12/05 03:37:19;;;;;;;4.60;3.47;;;;;;;;;;5095507;28;20016;-66
2022/12/05 03:39:48;;;;;;;3.95;3.20;;;;;;;;;;5094484;28;20048;-66
2022/12/05 03:42:18;;;;;;;3.78;3.05;;;;;;;;;;5094932;28;20505;-66
2022/12/05 03:44:49;;;;;;;4.32;2.55;;;;;;;;;;5095042;28;20017;-66
2022/12/05 03:47:15;;;;;;;;;;;;;;;;;;5095496;28;20423;-66
2022/12/05 03:49:45;;;;;;;4.32;2.65;;;;;;;;;;5095134;28;19906;-65
2022/12/05 03:52:11;;;;;;;3.13;2.50;;;;;;;;;;5095241;28;20021;-66
2022/12/05 03:54:41;;;;;;;3.35;2.58;;;;;;;;;;5094562;28;20027;-66
2022/12/05 03:57:33;;;;;;;4.00;2.55;;;;;;;;;;5094717;28;20032;-65
2022/12/05 04:00:08;;;;;;;3.67;3.00;;;;;;;;;;5032009;28;20042;-65
2022/12/05 04:02:44;;;;;;;3.53;2.85;;;;;;;;;;5032077;28;20033;-65
2022/12/05 04:05:19;;;;;;;3.63;2.75;;;;;;;;;;5032500;28;20030;-66
2022/12/05 04:07:46;;;;;;;3.85;2.70;;;;;;;;;;5032398;28;20032;-66
2022/12/05 04:10:14;;;;;;;4.45;3.22;;;;;;;;;;5032125;28;20126;-66
2022/12/05 04:12:43;;;;;;;3.83;2.58;;;;;;;;;;5015683;28;20038;-66
2022/12/05 04:17:02;;;;;;;5.00;2.72;;;;;;;;;;5032064;28;20035;-66
2022/12/05 04:18:18;;;;;;;3.85;2.80;;;;;;;;;;5032037;28;20041;-66
2022/12/05 04:23:31;;;;;;;2.88;2.40;;;;;;;;;;5051820;28;20043;-66
2022/12/05 04:25:57;;;;;;;3.25;2.63;;;;;;;;;;5051852;28;20025;-66
2022/12/05 04:28:28;;;;;;;3.55;2.60;;;;;;;;;;5051779;28;20025;-66
2022/12/05 04:31:10;;;;;;;3.10;2.55;;;;;;;;;;5051769;28;20043;-65
2022/12/05 04:33:39;;;;;;;3.60;2.70;;;;;;;;;;5051871;28;20482;-65
2022/12/05 04:36:09;;;;;;;2.72;2.03;;;;;;;;;;5051963;28;20033;-65
2022/12/05 04:38:42;;;;;;;4.15;2.53;;;;;;;;;;5064014;28;20021;-66
2022/12/05 04:41:11;;;;;;;3.33;2.40;;;;;;;;;;5072676;28;20047;-66
2022/12/05 04:43:39;;;;;;;2.88;2.47;;;;;;;;;;5075945;28;20054;-66
2022/12/05 04:46:07;;;;;;;3.00;2.17;;;;;;;;;;5093641;28;20492;-66
2022/12/05 04:48:36;;;;;;;3.35;1.73;;;;;;;;;;5092335;28;20030;-66
2022/12/05 04:51:04;;;;;;;2.60;1.73;;;;;;;;;;5075889;28;20032;-66
2022/12/05 04:53:30;;;;;;;3.05;2.00;;;;;;;;;;5092178;28;20034;-66
2022/12/05 04:55:58;;;;;;;2.90;1.85;;;;;;;;;;5093499;28;20024;-66
2022/12/05 04:58:26;;;;;;;1.95;1.70;;;;;;;;;;5093644;28;20032;-66
2022/12/05 05:01:07;;;;;;;1.80;1.50;;;;;;;;;;5093522;28;20032;-65
2022/12/05 05:03:36;;;;;;;2.80;1.98;;;;;;;;;;5093383;28;20024;-66
2022/12/05 05:06:02;;;;;;;2.30;1.90;;;;;;;;;;5093546;28;20024;-66
2022/12/05 05:08:29;;;;;;;1.92;1.63;;;;;;;;;;5075367;28;20073;-66
2022/12/05 05:11:13;;;;;;;2.97;2.42;;;;;;;;;;5093478;28;20030;-65
2022/12/05 05:13:39;;;;;;;1.98;1.75;;;;;;;;;;5093204;28;20388;-66
2022/12/05 05:16:06;;;;;;;5.00;2.33;;;;;;;;;;5093304;28;20038;-66
2022/12/05 05:18:33;;;;;;;4.28;2.75;;;;;;;;;;5093114;28;20023;-65
2022/12/05 05:20:59;;;;;;;5.30;3.38;;;;;;;;;;5089284;28;20509;-66
2022/12/05 05:23:25;;;;;;;4.20;3.22;;;;;;;;;;5072642;28;20481;-66
2022/12/05 05:25:52;;;;;;;4.25;2.97;;;;;;;;;;5072869;28;20029;-66
2022/12/05 05:28:19;;;;;;;3.22;2.55;;;;;;;;;;5055170;28;20025;-66
2022/12/05 05:30:45;;;;;;;3.58;2.65;;;;;;;;;;5072768;28;20035;-65
2022/12/05 05:33:12;;;;;;;2.70;2.40;;;;;;;;;;5072697;28;20028;-66
2022/12/05 05:35:38;;;;;;;3.08;2.55;;;;;;;;;;5072486;28;20036;-65
2022/12/05 05:38:05;;;;;;;3.58;2.67;;;;;;;;;;5072442;28;20401;-65
2022/12/05 05:40:34;;;;;;;3.65;2.60;;;;;;;;;;5072428;28;20109;-66
2022/12/05 05:43:00;;;;;;;3.75;2.58;;;;;;;;;;5072447;28;20020;-65
2022/12/05 05:45:26;;;;;;;3.65;2.50;;;;;;;;;;5072872;28;20025;-66
2022/12/05 05:47:53;;;;;;;2.58;2.13;;;;;;;;;;5072340;28;20485;-65
2022/12/05 05:50:19;;;;;;;3.83;2.50;;;;;;;;;;5071852;28;20017;-66
2022/12/05 05:52:45;;;;;;;3.83;2.53;;;;;;;;;;5072577;28;20024;-66
2022/12/05 05:55:12;;;;;;;3.40;2.33;;;;;;;;;;5054290;28;20059;-65
2022/12/05 05:57:38;;;;;;;3.13;2.17;;;;;;;;;;5054279;28;20408;-66
2022/12/05 06:00:05;;;;;;;3.35;2.63;;;;;;;;;;5072478;28;20035;-65
2022/12/05 06:02:33;;;;;;;3.10;2.45;;;;;;;;;;5072037;28;20082;-65
2022/12/05 06:04:59;;;;;;;3.92;2.33;;;;;;;;;;5071948;28;20025;-65
2022/12/05 06:07:25;;;;;;;3.03;2.55;;;;;;;;;;5072016;28;20033;-66
2022/12/05 06:09:51;;;;;;;3.40;2.67;;;;;;;;;;5072028;28;20024;-65
2022/12/05 06:12:18;;;;;;;3.60;2.90;;;;;;;;;;5072234;28;20484;-65
2022/12/05 06:14:44;;;;;;;3.03;2.72;;;;;;;;;;5071956;28;20443;-65
2022/12/05 06:17:10;;;;;;;6.00;3.70;;;;;;;;;;5072292;28;20035;-66
2022/12/05 06:19:37;;;;;;;4.82;3.85;;;;;;;;;;5071656;28;20027;-66
2022/12/05 06:22:03;;;;;;;5.20;3.83;;;;;;;;;;5084093;28;20036;-66
2022/12/05 06:24:29;;;;;;;4.30;3.08;;;;;;;;;;5092313;28;20034;-66
2022/12/05 06:26:56;;;;;;;3.88;2.97;;;;;;;;;;5092178;28;20027;-66
2022/12/05 06:29:22;;;;;;;4.63;3.05;;;;;;;;;;5091929;28;20099;-66
2022/12/05 06:31:48;;;;;;;3.33;2.80;;;;;;;;;;5092132;28;20031;-66
2022/12/05 06:34:16;;;;;;;4.03;2.90;;;;;;;;;;5073837;28;20020;-65
2022/12/05 06:36:42;;;;;;;6.35;3.83;;;;;;;;;;5091999;28;20032;-65
2022/12/05 06:39:08;;;;;;;7.20;4.20;;;;;;;;;;5092039;28;20058;-68
2022/12/05 06:41:35;;;;;;;9.73;4.72;;;;;;;;;;5092216;28;20036;-66
2022/12/05 06:44:01;;;;;;;7.45;4.55;;;;;;;;;;5091898;28;20032;-65
2022/12/05 06:46:27;;;;;;;3.40;2.80;;;;;;;;;;5091878;28;20028;-66
2022/12/05 06:48:57;;;;;;;3.50;2.80;;;;;;;;;;5091501;28;20034;-66
2022/12/05 06:51:24;;;;;;;3.15;2.80;;;;;;;;;;5092103;28;20028;-66
2022/12/05 06:53:50;;;;;;;4.03;2.60;;;;;;;;;;5091471;28;20031;-66
2022/12/05 06:56:18;;;;;;;4.00;2.95;;;;;;;;;;5091824;28;20032;-65
2022/12/05 06:58:45;;;;;;;3.38;2.85;;;;;;;;;;5091327;28;20031;-65
2022/12/05 07:03:58;;;;;;;3.58;2.80;;;;;;;;;;5092962;28;20073;-65
2022/12/05 07:06:24;;;;;;;3.35;2.78;;;;;;;;;;5095693;28;20027;-65
2022/12/05 07:08:50;;;;;;;3.60;2.95;;;;;;;;;;5095561;28;20020;-65
2022/12/05 07:11:17;;;;;;;3.70;2.88;;;;;;;;;;5094635;28;20016;-64
2022/12/05 07:13:43;;;;;;;6.75;4.63;;;;;;;;;;5094842;28;20028;-67
2022/12/05 07:16:09;;;;;;;16.70;8.88;;;;;;;;;;5090724;28;20365;-65
2022/12/05 07:18:36;;;;;;;14.10;9.13;;;;;;;;;;5094685;28;20020;-65
2022/12/05 07:21:04;;;;;;;11.50;6.65;;;;;;;;;;5096666;28;20047;-65
2022/12/05 07:23:30;;;;;;;8.50;5.60;;;;;;;;;;5090625;28;20088;-65
2022/12/05 07:25:57;;;;;;;5.70;3.95;;;;;;;;;;5089364;28;20024;-65
2022/12/05 07:28:23;;;;;;;4.30;2.88;;;;;;;;;;5094948;28;20030;-65
2022/12/05 07:30:59;;;;;;;3.58;2.47;;;;;;;;;;5092537;28;20030;-66
2022/12/05 07:33:25;;;;;;;5.80;3.33;;;;;;;;;;5078493;28;20026;-66
2022/12/05 07:35:51;;;;;;;6.57;4.47;;;;;;;;;;5084598;28;20043;-65
2022/12/05 07:38:17;;;;;;;4.13;2.65;;;;;;;;;;5073996;28;20032;-65
2022/12/05 07:40:44;;;;;;;3.30;2.33;;;;;;;;;;5073957;28;20048;-65
2022/12/05 07:43:10;;;;;;;3.03;2.42;;;;;;;;;;5074139;28;20077;-65
2022/12/05 07:45:36;;;;;;;5.50;3.22;;;;;;;;;;5093791;28;20020;-66
2022/12/05 07:48:03;;;;;;;3.72;2.80;;;;;;;;;;5093145;28;20050;-65
2022/12/05 07:50:29;;;;;;;3.30;2.30;;;;;;;;;;5092888;28;20030;-66
2022/12/05 07:52:55;;;;;;;2.38;1.92;;;;;;;;;;5094639;28;20483;-65
2022/12/05 07:55:22;;;;;;;2.97;2.13;;;;;;;;;;5101524;28;20035;-66
2022/12/05 07:57:48;;;;;;;3.50;2.75;;;;;;;;;;5113851;28;20011;-66
2022/12/05 08:00:15;;;;;;;3.72;2.45;;;;;;;;;;5090642;28;20032;-65
2022/12/05 08:02:41;;;;;;;3.53;2.50;;;;;;;;;;5089983;28;20590;-66
2022/12/05 08:05:07;;;;;;;3.17;2.33;;;;;;;;;;5088208;28;20077;-65
2022/12/05 08:07:33;;;;;;;5.55;2.53;;;;;;;;;;5092808;28;20362;-66
2022/12/05 08:10:00;;;;;;;4.20;2.92;;;;;;;;;;5092570;28;20040;-66
2022/12/05 08:12:26;;;;;;;4.65;3.15;;;;;;;;;;5074760;28;20036;-65
2022/12/05 08:14:52;;;;;;;2.92;2.30;;;;;;;;;;5078840;28;20032;-66
2022/12/05 08:17:19;;;;;;;3.70;2.58;;;;;;;;;;5105539;28;20038;-66
2022/12/05 08:19:45;;;;;;;3.20;2.33;;;;;;;;;;5093193;28;20020;-66
2022/12/05 08:22:11;;;;;;;4.25;2.35;;;;;;;;;;5093466;28;20084;-66
2022/12/05 08:24:38;;;;;;;4.45;2.58;;;;;;;;;;5091850;28;20016;-66
2022/12/05 08:27:05;;;;;;;3.25;2.33;;;;;;;;;;5093249;28;20034;-66
2022/12/05 08:29:31;;;;;;;3.13;2.10;;;;;;;;;;5087312;28;20035;-66
2022/12/05 08:31:58;;;;;;;3.22;2.20;;;;;;;;;;5075072;28;20030;-66
2022/12/05 08:34:24;;;;;;;3.80;2.15;;;;;;;;;;5093145;28;20045;-66
2022/12/05 08:36:50;;;;;;;3.15;2.38;;;;;;;;;;5092436;28;20036;-66
2022/12/05 08:39:18;;;;;;;2.63;2.08;;;;;;;;;;5087651;28;20049;-66
2022/12/05 08:41:45;;;;;;;2.15;1.70;;;;;;;;;;5051480;28;20044;-66
2022/12/05 08:44:15;;;;;;;3.22;2.33;;;;;;;;;;5051932;28;20029;-66
2022/12/05 08:46:43;;;;;;;3.77;2.97;;;;;;;;;;5063582;28;20054;-66
2022/12/05 08:49:10;;;;;;;3.50;2.47;;;;;;;;;;5054259;28;20036;-66
2022/12/05 08:51:36;;;;;;;3.10;2.30;;;;;;;;;;5072285;28;20024;-66
2022/12/05 08:54:03;;;;;;;5.28;2.70;;;;;;;;;;5072065;28;20489;-66
2022/12/05 08:56:29;;;;;;;4.30;3.00;;;;;;;;;;5053884;28;20021;-66
2022/12/05 08:58:56;;;;;;;5.28;2.72;;;;;;;;;;5053616;28;20034;-66
2022/12/05 09:01:24;;;;;;;3.75;3.13;;;;;;;;;;5072066;28;20064;-66
2022/12/05 09:03:51;;;;;;;3.45;2.60;;;;;;;;;;5071859;28;20013;-66
2022/12/05 09:06:19;;;;;;;8.63;6.93;;;;;;;;;;5054133;28;20046;-66
2022/12/05 09:08:45;;;;;;;5.88;5.05;;;;;;;;;;5071462;28;20482;-66
2022/12/05 09:11:17;;;;;;;5.25;4.00;;;;;;;;;;5071249;28;20039;-66
2022/12/05 09:13:43;;;;;;;;;;;;;;;;;;5071785;28;20036;-66
2022/12/05 09:16:10;;;;;;;3.78;3.15;;;;;;;;;;5068772;28;19916;-64
2022/12/05 09:18:36;;;;;;;3.47;2.90;;;;;;;;;;5059739;28;20021;-66
2022/12/05 09:21:10;;;;;;;4.00;3.50;;;;;;;;;;5054428;28;20036;-65
2022/12/05 09:23:36;;;;;;;5.30;3.92;;;;;;;;;;5076377;28;20021;-66
2022/12/05 09:26:04;;;;;;;5.07;3.40;;;;;;;;;;5070922;28;20033;-65
2022/12/05 09:28:30;;;;;;;7.90;5.10;;;;;;;;;;5071287;28;20024;-66
2022/12/05 09:31:01;;;;;;;11.18;6.60;;;;;;;;;;5071314;28;20531;-66
2022/12/05 09:33:28;;;;;;;9.60;6.22;;;;;;;;;;5071821;28;20031;-66
2022/12/05 09:35:54;;;;;;;8.85;7.22;;;;;;;;;;5071214;28;20515;-66
2022/12/05 09:38:21;;;;;;;6.18;2.45;;;;;;;;;;5071241;28;20379;-67
2022/12/05 09:40:53;;;;;;;3.13;2.40;;;;;;;;;;5088472;28;20052;-66
2022/12/05 09:43:38;;;;;;;2.50;2.00;;;;;;;;;;5091136;28;20020;-66
2022/12/05 09:46:13;;;;;;;3.08;2.53;;;;;;;;;;5090856;28;20691;-66
2022/12/05 09:48:39;;;;;;;3.55;2.22;;;;;;;;;;5091661;28;20042;-65
2022/12/05 09:51:09;;;;;;;3.17;2.20;;;;;;;;;;5091387;28;20032;-65
2022/12/05 09:53:38;;;;;;;2.30;2.08;;;;;;;;;;5091515;28;20028;-66
2022/12/05 09:56:16;;;;;;;4.93;2.50;;;;;;;;;;5091447;28;20388;-67
2022/12/05 09:58:53;;;;;;;2.50;2.30;;;;;;;;;;5090871;28;20020;-65
2022/12/05 10:01:41;;;;;;;2.80;2.30;;;;;;;;;;5085747;28;20040;-66
2022/12/05 10:04:07;;;;;;;2.30;2.00;;;;;;;;;;5090506;28;20424;-65
2022/12/05 10:06:38;;;;;;;2.80;2.17;;;;;;;;;;5090130;28;20023;-65
2022/12/05 10:09:08;;;;;;;3.85;2.78;;;;;;;;;;5072396;28;20472;-66
2022/12/05 10:11:38;;;;;;;2.10;1.90;;;;;;;;;;5089820;28;20020;-66
2022/12/05 10:14:05;;;;;;;2.20;2.00;;;;;;;;;;5090065;28;20755;-65
2022/12/05 10:16:38;;;;;;;2.30;2.10;;;;;;;;;;5090719;28;20038;-66
2022/12/05 10:19:14;;;;;;;2.78;2.25;;;;;;;;;;5090834;28;20439;-65
2022/12/05 10:21:59;;;;;;;4.63;2.95;;;;;;;;;;5092596;28;20042;-65
2022/12/05 10:24:26;;;;;;;2.80;2.38;;;;;;;;;;5088653;28;20039;-66
2022/12/05 10:27:07;;;;;;;2.78;2.30;;;;;;;;;;5070230;28;20054;-65
2022/12/05 10:29:33;;;;;;;;;;;;;;;;;;5074690;28;20020;-66
2022/12/05 10:32:08;;;;;;;3.08;2.17;;;;;;;;;;5090288;28;19911;-65
2022/12/05 10:34:39;;;;;;;3.47;2.65;;;;;;;;;;5090692;28;20027;-67
2022/12/05 10:37:10;;;;;;;3.53;2.25;;;;;;;;;;5089823;28;20051;-65
2022/12/05 10:39:37;;;;;;;4.03;2.60;;;;;;;;;;5094659;28;20505;-66
2022/12/05 10:42:04;;;;;;;3.13;2.10;;;;;;;;;;5080310;28;20052;-66
2022/12/05 10:44:31;;;;;;;2.85;2.45;;;;;;;;;;5074594;28;20024;-66
2022/12/05 10:46:58;;;;;;;5.82;4.43;;;;;;;;;;5074731;28;20028;-66
2022/12/05 10:49:25;;;;;;;2.08;1.88;;;;;;;;;;5074423;28;20021;-66
2022/12/05 10:51:51;;;;;;;3.25;2.10;;;;;;;;;;5074832;28;20017;-67
2022/12/05 10:54:23;;;;;;;2.30;2.08;;;;;;;;;;5076895;28;20405;-67
2022/12/05 10:56:50;;;;;;;2.70;2.28;;;;;;;;;;5094323;28;20023;-67
2022/12/05 10:59:20;;;;;;;3.03;1.98;;;;;;;;;;5094713;28;20043;-67
2022/12/05 11:01:57;;;;;;;3.50;1.65;;;;;;;;;;5093566;28;20042;-66
2022/12/05 11:04:26;;;;;;;4.07;1.90;;;;;;;;;;5087740;28;20515;-67
2022/12/05 11:06:55;;;;;;;14.43;12.93;;;;;;;;;;5076034;28;20039;-67
2022/12/05 11:09:23;;;;;;;7.53;6.13;;;;;;;;;;5094104;28;20364;-67
2022/12/05 11:12:01;;;;;;;3.67;2.05;;;;;;;;;;5094703;28;20024;-67
2022/12/05 11:14:28;;;;;;;2.25;1.83;;;;;;;;;;5094343;28;20024;-66
2022/12/05 11:16:56;;;;;;;2.30;1.75;;;;;;;;;;5094112;28;20020;-68
2022/12/05 11:19:26;;;;;;;2.72;1.95;;;;;;;;;;5093860;28;20024;-67
2022/12/05 11:21:53;;;;;;;2.08;1.77;;;;;;;;;;5093943;28;20038;-67
2022/12/05 11:24:25;;;;;;;2.10;1.83;;;;;;;;;;5094029;28;20020;-67
2022/12/05 11:26:52;;;;;;;3.80;2.05;;;;;;;;;;5093773;28;20030;-67
2022/12/05 11:29:35;;;;;;;2.10;1.55;;;;;;;;;;5094110;28;20024;-67
2022/12/05 11:32:02;;;;;;;1.80;1.63;;;;;;;;;;5093806;28;20032;-67
2022/12/05 11:34:40;;;;;;;2.47;2.05;;;;;;;;;;5093904;28;20019;-67
2022/12/05 11:37:13;;;;;;;2.00;1.80;;;;;;;;;;5094072;28;20034;-67
2022/12/05 11:39:39;;;;;;;4.13;1.90;;;;;;;;;;5093198;28;20527;-67
2022/12/05 11:42:12;;;;;;;2.53;2.00;;;;;;;;;;5079246;28;20044;-67
2022/12/05 11:44:41;;;;;;;2.95;2.10;;;;;;;;;;5073429;28;20042;-67
2022/12/05 11:47:26;;;;;;;3.20;2.25;;;;;;;;;;5073322;28;20023;-67
2022/12/05 11:50:02;;;;;;;3.80;2.30;;;;;;;;;;5072763;28;20069;-67
2022/12/05 11:52:47;;;;;;;3.58;2.13;;;;;;;;;;5073373;28;20034;-67
2022/12/05 11:55:13;;;;;;;1.90;1.73;;;;;;;;;;5073397;28;20393;-67
2022/12/05 11:57:39;;;;;;;2.08;1.80;;;;;;;;;;5073667;28;20493;-67
2022/12/05 12:00:11;;;;;;;6.57;4.45;;;;;;;;;;5073457;28;20029;-67
2022/12/05 12:02:50;;;;;;;6.55;4.88;;;;;;;;;;5073980;28;20035;-67
2022/12/05 12:05:16;;;;;;;1.83;1.70;;;;;;;;;;5073983;28;20024;-67
2022/12/05 12:07:43;;;;;;;3.40;1.80;;;;;;;;;;5073570;28;20028;-67
2022/12/05 12:10:22;;;;;;;1.80;1.70;;;;;;;;;;5074535;28;20025;-67
2022/12/05 12:12:55;;;;;;;2.00;1.80;;;;;;;;;;5074189;28;20020;-67
2022/12/05 12:15:39;;;;;;;2.45;2.13;;;;;;;;;;5074422;28;20035;-67
2022/12/05 12:18:24;;;;;;;2.03;1.77;;;;;;;;;;5074369;28;20028;-67
2022/12/05 12:20:51;;;;;;;3.10;1.95;;;;;;;;;;5074631;28;20040;-67
2022/12/05 12:23:20;;;;;;;3.40;2.67;;;;;;;;;;5092510;28;20404;-67
2022/12/05 12:25:46;;;;;;;2.08;1.90;;;;;;;;;;5093053;28;20024;-67
2022/12/05 12:28:31;;;;;;;5.85;2.15;;;;;;;;;;5092899;28;20489;-67
2022/12/05 12:30:57;;;;;;;2.13;1.90;;;;;;;;;;5093031;28;20501;-68
2022/12/05 12:33:23;;;;;;;6.90;4.45;;;;;;;;;;5092875;28;20408;-67
2022/12/05 12:35:52;;;;;;;2.05;1.85;;;;;;;;;;5089723;28;20031;-67
2022/12/05 12:38:37;;;;;;;3.45;2.60;;;;;;;;;;5083273;28;20046;-68
2022/12/05 12:41:16;;;;;;;2.78;2.03;;;;;;;;;;5092099;28;20576;-67
2022/12/05 12:43:51;;;;;;;2.55;2.20;;;;;;;;;;5092941;28;20024;-68
2022/12/05 12:46:21;;;;;;;6.03;3.42;;;;;;;;;;5092722;28;20028;-68
2022/12/05 12:48:58;;;;;;;3.50;2.20;;;;;;;;;;5091542;28;20032;-68
2022/12/05 12:51:24;;;;;;;4.90;4.20;;;;;;;;;;5091846;28;20285;-68
2022/12/05 12:53:57;;;;;;;2.05;1.85;;;;;;;;;;5092325;28;20865;-68
2022/12/05 12:56:24;;;;;;;2.78;2.20;;;;;;;;;;5090866;28;20076;-68
2022/12/05 12:58:53;;;;;;;2.58;2.13;;;;;;;;;;5086973;28;20030;-68
2022/12/05 13:01:38;;;;;;;3.50;1.92;;;;;;;;;;5087174;28;20036;-68
2022/12/05 13:04:11;;;;;;;5.47;4.30;;;;;;;;;;5081069;28;20021;-68
2022/12/05 13:06:43;;;;;;;4.97;3.17;;;;;;;;;;5071399;28;20385;-68
2022/12/05 13:09:14;;;;;;;2.97;2.50;;;;;;;;;;5077707;28;20034;-68
2022/12/05 13:11:42;;;;;;;2.75;2.40;;;;;;;;;;5090481;28;20042;-68
2022/12/05 13:14:11;;;;;;;18.95;11.40;;;;;;;;;;5092084;28;20020;-68
2022/12/05 13:16:40;;;;;;;2.80;2.60;;;;;;;;;;5092178;28;20012;-68
2022/12/05 13:19:06;;;;;;;5.22;3.30;;;;;;;;;;5090080;28;20024;-68
2022/12/05 13:21:33;;;;;;;3.90;2.80;;;;;;;;;;5090444;28;20028;-68
2022/12/05 13:24:02;;;;;;;2.45;2.10;;;;;;;;;;5085540;28;20488;-67
2022/12/05 13:26:33;;;;;;;4.78;3.00;;;;;;;;;;5090494;28;20026;-68
2022/12/05 13:29:00;;;;;;;6.10;5.25;;;;;;;;;;5081500;28;20039;-68
2022/12/05 13:31:40;;;;;;;3.22;2.10;;;;;;;;;;5074575;28;20028;-68
2022/12/05 13:34:28;;;;;;;3.63;2.40;;;;;;;;;;5091498;28;20046;-68
2022/12/05 13:42:29;;;;;;;3.20;2.88;;;;;;;;;;5074150;28;20044;-68
2022/12/05 13:45:07;;;;;;;4.35;3.05;;;;;;;;;;5062189;28;20028;-68
2022/12/05 13:47:37;;;;;;;5.03;2.72;;;;;;;;;;5077859;28;20027;-67
2022/12/05 13:50:03;;;;;;;3.90;2.95;;;;;;;;;;5089519;28;20062;-68
2022/12/05 13:52:31;;;;;;;3.95;2.92;;;;;;;;;;5088380;28;20020;-67
2022/12/05 13:54:57;;;;;;;7.20;4.90;;;;;;;;;;5074668;28;20043;-66
2022/12/05 13:57:39;;;;;;;8.10;3.85;;;;;;;;;;5091218;28;20034;-67
2022/12/05 14:00:08;;;;;;;5.95;3.97;;;;;;;;;;5091399;28;20031;-67
2022/12/05 14:02:41;;;;;;;5.18;3.83;;;;;;;;;;5091312;28;20032;-67
2022/12/05 14:05:13;;;;;;;9.35;4.82;;;;;;;;;;5088481;28;20034;-67
2022/12/05 14:07:39;;;;;;;7.57;5.20;;;;;;;;;;5090998;28;20024;-67
2022/12/05 14:10:06;;;;;;;8.75;6.22;;;;;;;;;;5084742;28;20020;-68
2022/12/05 14:12:52;;;;;;;7.45;4.95;;;;;;;;;;5090565;28;20028;-67
2022/12/05 14:15:28;;;;;;;5.20;4.13;;;;;;;;;;5087238;28;20033;-67
2022/12/05 14:18:02;;;;;;;7.22;4.78;;;;;;;;;;5088617;28;20499;-67
2022/12/05 14:20:55;;;;;;;6.20;4.47;;;;;;;;;;5086148;28;20024;-66
2022/12/05 14:23:37;;;;;;;7.63;4.20;;;;;;;;;;5085103;28;20609;-67
2022/12/05 14:26:15;;;;;;;5.97;3.15;;;;;;;;;;5090855;28;20038;-67
2022/12/05 14:29:08;;;;;;;8.40;3.42;;;;;;;;;;5091062;28;20024;-66
2022/12/05 14:31:37;;;;;;;6.93;3.13;;;;;;;;;;5091292;28;20027;-67
2022/12/05 14:34:23;;;;;;;7.07;2.85;;;;;;;;;;5090508;28;20431;-66
2022/12/05 14:36:55;;;;;;;4.18;2.63;;;;;;;;;;5090822;28;20418;-67
2022/12/05 14:39:28;;;;;;;4.95;1.90;;;;;;;;;;5090591;28;20060;-66
2022/12/05 14:41:59;;;;;;;4.97;2.58;;;;;;;;;;5077866;28;20043;-66
2022/12/05 14:44:30;;;;;;;2.17;1.80;;;;;;;;;;5070900;28;20042;-67
2022/12/05 14:47:04;;;;;;;2.30;1.80;;;;;;;;;;5070128;28;20050;-67
2022/12/05 14:49:35;;;;;;;2.83;2.05;;;;;;;;;;5079125;28;20024;-67
2022/12/05 14:52:08;;;;;;;2.75;2.03;;;;;;;;;;5089440;28;20032;-67
2022/12/05 14:54:35;;;;;;;2.92;1.80;;;;;;;;;;5090580;28;20020;-67
2022/12/05 14:57:03;;;;;;;3.17;1.80;;;;;;;;;;5089272;28;20046;-67
2022/12/05 14:59:37;;;;;;;3.00;2.10;;;;;;;;;;5090606;28;20027;-67
2022/12/05 15:02:04;;;;;;;3.25;1.70;;;;;;;;;;5072161;28;20439;-67
2022/12/05 15:04:31;;;;;;;3.10;1.73;;;;;;;;;;5072685;28;20020;-66
2022/12/05 15:06:59;;;;;;;2.63;1.70;;;;;;;;;;5090306;28;20024;-65